宮崎空港の過去48時間の天気

宮崎空港 (Miyazaki)

現在時刻: 5/22 07:23 JST (5/21 22:23 UTC) 以下の時間は現地時間です。

過去48時間のMETAR気象情報
時間 風向 風速(m/s) 視程 気温(℃) 湿度(%) 気圧(hPa) 天気現象
22 07:12 北東 9 4,000m 19 100 1014 弱いしゅう雨 もや
22 07:00 北東 9 5,000m 20 94 1014 弱いしゅう雨 もや
22 06:27 北北東 8 6,000m 19 100 1014
22 06:10 北北東 8 4,500m 19 100 1014 弱いしゅう雨 もや
RJFM 212212Z 04017KT 4000 -SHRA BR FEW005 BKN010 BKN015 19/19 Q1014 RMK 1ST005 6ST010 7CU015 A2996
RJFM 212200Z 04018KT 5000 -SHRA BR FEW005 BKN010 BKN017 20/19 Q1014
RJFM 212127Z 03016KT 6000 FEW005 SCT009 BKN017 19/19 Q1014 RMK 1ST005 3ST009 5CU017 A2995
RJFM 212110Z 03015KT 4500 -SHRA BR FEW005 SCT010 BKN020 19/19 Q1014 RMK 1ST005 4ST010 5CU020 A2995